Time;durP1;ratioP1;P1;durP2;ratioP2;P2;SDS_P1;SDS_P2;PMS_P1;PMS_P2;Temp;Humidity;BMP_temperature;BMP_pressure;BME280_temperature;BME280_humidity;BME280_pressure;Samples;Min_cycle;Max_cycle;Signal;HPM_P1;HPM_P2
2023/01/13 00:00:44;;;;;;;38.30;5.38;;;9.00;99.90;;;;;;5057533;28;20499;-69
2023/01/13 00:03:09;;;;;;;30.15;4.72;;;9.00;99.90;;;;;;5058845;28;20482;-70
2023/01/13 00:05:36;;;;;;;33.13;5.47;;;9.00;99.90;;;;;;5059346;28;20103;-71
2023/01/13 00:08:05;;;;;;;28.67;4.70;;;9.00;99.90;;;;;;5057174;28;20144;-68
2023/01/13 00:10:31;;;;;;;33.47;4.82;;;9.00;99.90;;;;;;5060027;28;20491;-70
2023/01/13 00:12:58;;;;;;;33.95;5.80;;;9.00;99.90;;;;;;5061472;28;20027;-70
2023/01/13 00:15:23;;;;;;;37.10;6.32;;;9.00;99.90;;;;;;5060445;28;20056;-68
2023/01/13 00:17:49;;;;;;;36.70;6.57;;;9.00;99.90;;;;;;5063284;28;20021;-69
2023/01/13 00:20:15;;;;;;;36.08;5.70;;;9.00;99.90;;;;;;5061940;28;20107;-69
2023/01/13 00:22:41;;;;;;;40.00;6.40;;;9.00;99.90;;;;;;5061408;28;20036;-69
2023/01/13 00:25:07;;;;;;;36.10;5.75;;;9.00;99.90;;;;;;5061692;28;20407;-69
2023/01/13 00:27:34;;;;;;;33.63;5.50;;;9.00;99.90;;;;;;5061981;28;20029;-70
2023/01/13 00:30:00;;;;;;;38.88;5.95;;;8.90;99.90;;;;;;5060906;28;20025;-70
2023/01/13 00:32:26;;;;;;;40.85;6.47;;;9.00;99.90;;;;;;5060501;28;20025;-69
2023/01/13 00:34:51;;;;;;;31.17;5.68;;;9.00;99.90;;;;;;5062170;28;20032;-70
2023/01/13 00:37:17;;;;;;;37.50;6.28;;;9.00;99.90;;;;;;5059151;28;20047;-70
2023/01/13 00:39:43;;;;;;;32.78;5.65;;;9.00;99.90;;;;;;5065707;28;20783;-70
2023/01/13 00:45:12;;;;;;;31.73;5.82;;;9.00;99.90;;;;;;4997637;28;20093;-69
2023/01/13 00:47:38;;;;;;;29.25;5.43;;;9.10;99.90;;;;;;4997271;28;20034;-70
2023/01/13 00:50:04;;;;;;;30.02;6.35;;;9.10;99.90;;;;;;5026862;28;20098;-68
2023/01/13 00:52:32;;;;;;;37.30;5.35;;;9.10;99.90;;;;;;5064580;28;20032;-70
2023/01/13 00:54:59;;;;;;;35.05;5.75;;;9.10;99.90;;;;;;5061951;28;20042;-69
2023/01/13 00:57:25;;;;;;;32.80;5.30;;;9.10;99.90;;;;;;5071300;28;20116;-69
2023/01/13 00:59:51;;;;;;;32.97;6.05;;;9.10;99.90;;;;;;5068480;28;20601;-68
2023/01/13 01:02:16;;;;;;;39.38;5.57;;;9.10;99.90;;;;;;5071225;28;20029;-69
2023/01/13 01:04:42;;;;;;;33.30;5.85;;;9.10;99.90;;;;;;5068099;28;20098;-68
2023/01/13 01:07:07;;;;;;;33.78;5.50;;;9.00;99.90;;;;;;5071511;28;20035;-68
2023/01/13 01:09:33;;;;;;;32.83;5.72;;;9.10;99.90;;;;;;5071241;28;20104;-69
2023/01/13 01:11:59;;;;;;;28.20;4.65;;;9.00;99.90;;;;;;5065205;28;20086;-69
2023/01/13 01:14:26;;;;;;;33.88;6.13;;;9.10;99.90;;;;;;5062620;28;20068;-69
2023/01/13 01:16:52;;;;;;;35.15;5.35;;;9.10;99.90;;;;;;5056117;28;20071;-69
2023/01/13 01:19:18;;;;;;;40.03;8.63;;;9.10;99.90;;;;;;5055126;28;20082;-69
2023/01/13 01:21:43;;;;;;;33.22;5.65;;;9.20;99.90;;;;;;5070776;28;20107;-69
2023/01/13 01:24:09;;;;;;;40.38;5.55;;;9.20;99.90;;;;;;5061073;28;20035;-70
2023/01/13 01:26:34;;;;;;;32.40;4.75;;;9.20;99.90;;;;;;5074539;28;20028;-68
2023/01/13 01:29:01;;;;;;;30.45;6.30;;;9.20;99.90;;;;;;5074362;28;20032;-68
2023/01/13 01:31:31;;;;;;;27.00;4.05;;;9.20;99.90;;;;;;5074703;28;20024;-67
2023/01/13 01:33:58;;;;;;;33.50;6.10;;;9.20;99.90;;;;;;5074476;28;20040;-68
2023/01/13 01:36:25;;;;;;;29.95;5.55;;;9.10;99.90;;;;;;5074800;28;20086;-68
2023/01/13 01:38:51;;;;;;;36.40;5.53;;;9.10;99.90;;;;;;5074093;28;20103;-69
2023/01/13 01:41:21;;;;;;;36.80;5.05;;;9.10;99.90;;;;;;5067433;28;20029;-69
2023/01/13 01:44:16;;;;;;;30.27;6.63;;;9.10;99.90;;;;;;5065033;28;20467;-70
2023/01/13 01:46:43;;;;;;;28.08;5.28;;;9.00;99.90;;;;;;5060917;28;20037;-69
2023/01/13 01:49:21;;;;;;;40.83;5.82;;;9.10;99.90;;;;;;5072068;28;20032;-69
2023/01/13 01:51:50;;;;;;;33.00;4.85;;;9.00;99.90;;;;;;5073998;28;20384;-69
2023/01/13 01:54:23;;;;;;;34.17;5.65;;;9.00;99.90;;;;;;5073982;28;20035;-69
2023/01/13 01:56:49;;;;;;;27.75;5.65;;;9.00;99.90;;;;;;5074588;28;20017;-69
2023/01/13 01:59:15;;;;;;;33.88;5.15;;;9.00;99.90;;;;;;5074312;28;20032;-69
2023/01/13 02:01:42;;;;;;;34.33;5.47;;;9.00;99.90;;;;;;5073982;28;20024;-69
2023/01/13 02:04:22;;;;;;;36.03;5.72;;;9.00;99.90;;;;;;5074269;28;20044;-69
2023/01/13 02:06:49;;;;;;;32.58;5.93;;;9.00;99.90;;;;;;5059574;28;20028;-69
2023/01/13 02:09:16;;;;;;;29.27;5.40;;;9.00;99.90;;;;;;5058630;28;20095;-69
2023/01/13 02:14:27;;;;;;;34.22;5.30;;;9.00;99.90;;;;;;5073257;28;20548;-69
2023/01/13 02:17:14;;;;;;;41.95;7.32;;;9.00;99.90;;;;;;5059036;28;20052;-69
2023/01/13 02:20:12;;;;;;;38.75;6.18;;;9.00;99.90;;;;;;5072869;28;20132;-68
2023/01/13 02:22:59;;;;;;;29.55;5.55;;;9.00;99.90;;;;;;5071121;28;20025;-69
2023/01/13 02:25:37;;;;;;;36.70;4.82;;;9.00;99.90;;;;;;5054271;28;20036;-69
2023/01/13 02:28:22;;;;;;;37.33;6.38;;;9.00;99.90;;;;;;5059513;28;20032;-69
2023/01/13 02:33:55;;;;;;;44.92;7.72;;;9.00;99.90;;;;;;5066451;28;20495;-69
2023/01/13 02:36:36;;;;;;;40.53;6.38;;;9.00;99.90;;;;;;5073304;28;20029;-70
2023/01/13 02:39:06;;;;;;;37.75;5.80;;;9.00;99.90;;;;;;5058028;28;20063;-69
2023/01/13 02:44:31;;;;;;;32.80;5.03;;;8.90;99.90;;;;;;5059302;28;20032;-69
2023/01/13 02:47:04;;;;;;;40.40;5.90;;;8.90;99.90;;;;;;5066870;28;20020;-69
2023/01/13 02:49:36;;;;;;;34.70;6.28;;;9.00;99.90;;;;;;5057111;28;20025;-70
2023/01/13 02:52:08;;;;;;;35.30;5.68;;;8.90;99.90;;;;;;5057398;28;20094;-69
2023/01/13 02:54:37;;;;;;;31.42;5.10;;;8.90;99.90;;;;;;5064857;28;20036;-70
2023/01/13 02:57:07;;;;;;;34.40;4.90;;;8.90;99.90;;;;;;5060544;28;20127;-70
2023/01/13 02:59:33;;;;;;;33.13;5.63;;;8.90;99.90;;;;;;5069703;28;20071;-69
2023/01/13 03:02:02;;;;;;;32.63;5.65;;;8.90;99.90;;;;;;5057000;28;20112;-69
2023/01/13 03:04:55;;;;;;;26.88;5.63;;;8.90;99.90;;;;;;5065902;28;20052;-70
2023/01/13 03:07:44;;;;;;;35.08;6.82;;;8.90;99.90;;;;;;5065872;28;20059;-70
2023/01/13 03:10:15;;;;;;;29.48;4.60;;;8.90;99.90;;;;;;5058222;28;20028;-69
2023/01/13 03:13:01;;;;;;;31.73;5.53;;;8.90;99.90;;;;;;5063739;28;20421;-68
2023/01/13 03:15:39;;;;;;;26.48;4.55;;;8.90;99.90;;;;;;5068306;28;20049;-70
2023/01/13 03:18:39;;;;;;;28.90;4.85;;;8.90;99.90;;;;;;5057349;28;20021;-68
2023/01/13 03:21:29;;;;;;;26.02;5.18;;;8.90;99.90;;;;;;5060158;28;20041;-70
2023/01/13 03:23:54;;;;;;;24.80;3.65;;;8.90;99.90;;;;;;5069194;28;20036;-70
2023/01/13 03:26:22;;;;;;;26.55;4.30;;;8.90;99.90;;;;;;5066780;28;20024;-69
2023/01/13 03:28:57;;;;;;;34.55;4.40;;;9.00;99.90;;;;;;5062663;28;20029;-70
2023/01/13 03:31:28;;;;;;;31.10;4.72;;;9.00;99.90;;;;;;5068099;28;20379;-70
2023/01/13 03:34:16;;;;;;;23.90;4.32;;;9.00;99.90;;;;;;5056328;28;20090;-69
2023/01/13 03:36:45;;;;;;;24.80;3.78;;;9.00;99.90;;;;;;5063355;28;20116;-69
2023/01/13 03:39:16;;;;;;;27.40;4.28;;;9.00;99.90;;;;;;5065420;28;20036;-69
2023/01/13 03:41:48;;;;;;;22.92;4.38;;;9.00;99.90;;;;;;5054681;28;20048;-69
2023/01/13 03:44:40;;;;;;;29.02;4.18;;;9.00;99.90;;;;;;5070851;28;20024;-69
2023/01/13 03:47:25;;;;;;;;;;;9.00;99.90;;;;;;5056800;28;20403;-69
2023/01/13 03:49:53;;;;;;;23.50;3.85;;;9.00;99.90;;;;;;5038322;28;19954;-69
2023/01/13 03:52:30;;;;;;;29.10;5.30;;;9.00;99.90;;;;;;5055523;28;20029;-68
2023/01/13 03:55:12;;;;;;;23.92;4.45;;;8.90;99.90;;;;;;5064032;28;20036;-68
2023/01/13 03:57:43;;;;;;;28.58;4.15;;;8.90;99.90;;;;;;5069469;28;20029;-69
2023/01/13 04:00:11;;;;;;;19.48;3.42;;;8.90;99.90;;;;;;5055939;28;20124;-68
2023/01/13 04:02:47;;;;;;;33.63;4.82;;;9.00;99.90;;;;;;5063373;28;20031;-68
2023/01/13 04:05:13;;;;;;;27.92;4.15;;;8.90;99.90;;;;;;5072478;28;20044;-70
2023/01/13 04:07:46;;;;;;;21.20;4.45;;;9.00;99.90;;;;;;5055490;28;20090;-70
2023/01/13 04:10:15;;;;;;;24.70;4.40;;;9.00;99.90;;;;;;5067350;28;20017;-69
2023/01/13 04:13:00;;;;;;;28.67;4.97;;;9.00;99.90;;;;;;5061515;28;20500;-68
2023/01/13 04:15:30;;;;;;;20.95;4.05;;;9.10;99.90;;;;;;5056640;28;20823;-68
2023/01/13 04:18:14;;;;;;;38.72;4.63;;;9.10;99.90;;;;;;5068407;28;20031;-69
2023/01/13 04:20:41;;;;;;;28.65;5.53;;;9.20;99.90;;;;;;5057487;28;20048;-70
2023/01/13 04:23:07;;;;;;;23.08;4.35;;;9.20;99.90;;;;;;5058134;28;20027;-68
2023/01/13 04:25:33;;;;;;;26.95;4.55;;;9.30;99.90;;;;;;5068555;28;20032;-69
2023/01/13 04:27:59;;;;;;;25.48;4.65;;;9.30;99.90;;;;;;5034436;28;20419;-70
2023/01/13 04:30:24;;;;;;;32.20;3.95;;;9.30;99.90;;;;;;5059386;28;20032;-69
2023/01/13 04:32:50;;;;;;;24.77;3.97;;;9.40;99.90;;;;;;5061057;28;20469;-69
2023/01/13 04:35:15;;;;;;;27.85;3.80;;;9.40;99.90;;;;;;5064743;28;20469;-69
2023/01/13 04:37:41;;;;;;;25.35;3.83;;;9.50;99.90;;;;;;5057051;28;20037;-69
2023/01/13 04:40:07;;;;;;;32.28;5.22;;;9.50;99.90;;;;;;5067528;28;20037;-69
2023/01/13 04:42:33;;;;;;;25.42;4.05;;;9.50;99.90;;;;;;5060186;28;20063;-69
2023/01/13 04:44:58;;;;;;;25.10;3.30;;;9.50;99.90;;;;;;5060468;28;20044;-69
2023/01/13 04:47:24;;;;;;;22.13;4.05;;;9.50;99.90;;;;;;5066660;28;20396;-69
2023/01/13 04:49:49;;;;;;;16.92;3.25;;;9.50;99.90;;;;;;5055379;28;20029;-68
2023/01/13 04:52:15;;;;;;;30.08;3.80;;;9.40;99.90;;;;;;5067008;28;20068;-69
2023/01/13 04:54:40;;;;;;;27.77;4.85;;;9.30;99.90;;;;;;5065100;28;20041;-69
2023/01/13 04:57:06;;;;;;;23.20;3.22;;;9.30;99.90;;;;;;5062940;28;20451;-69
2023/01/13 04:59:31;;;;;;;24.55;4.35;;;9.30;99.90;;;;;;5072094;28;20372;-68
2023/01/13 05:01:57;;;;;;;24.88;3.50;;;9.20;99.90;;;;;;5062582;28;20048;-69
2023/01/13 05:04:22;;;;;;;21.98;3.28;;;9.10;99.90;;;;;;5070029;28;20078;-69
2023/01/13 05:06:48;;;;;;;24.50;3.83;;;9.10;99.90;;;;;;5065496;28;20025;-69
2023/01/13 05:09:14;;;;;;;17.90;3.40;;;9.00;99.90;;;;;;5069373;28;20020;-69
2023/01/13 05:17:18;;;;;;;27.77;4.20;;;8.90;99.90;;;;;;5068927;28;20114;-69
2023/01/13 05:19:43;;;;;;;22.38;3.63;;;8.90;99.90;;;;;;5058918;28;20029;-69
2023/01/13 05:27:37;;;;;;;24.83;3.90;;;8.80;99.90;;;;;;5071889;28;20114;-69
2023/01/13 05:30:04;;;;;;;28.65;3.80;;;8.80;99.90;;;;;;5059417;28;20406;-69
2023/01/13 05:32:29;;;;;;;25.70;4.45;;;8.70;99.90;;;;;;5067208;28;20021;-69
2023/01/13 05:34:55;;;;;;;19.92;2.92;;;8.80;99.90;;;;;;5066360;28;20064;-69
2023/01/13 05:37:21;;;;;;;26.98;3.63;;;8.80;99.90;;;;;;5060073;28;20032;-69
2023/01/13 05:45:15;;;;;;;27.60;4.72;;;9.00;99.90;;;;;;5060822;28;20120;-69
2023/01/13 05:47:41;;;;;;;15.80;3.30;;;9.00;99.90;;;;;;5066446;28;20119;-69
2023/01/13 05:50:07;;;;;;;26.27;4.65;;;9.10;99.90;;;;;;5063195;28;20055;-68
2023/01/13 05:52:33;;;;;;;29.60;4.13;;;9.10;99.90;;;;;;5066927;28;20055;-70
2023/01/13 05:54:58;;;;;;;27.42;4.93;;;9.20;99.90;;;;;;5066519;28;20024;-69
2023/01/13 05:57:24;;;;;;;31.60;3.78;;;9.20;99.90;;;;;;5059607;28;20025;-69
2023/01/13 05:59:49;;;;;;;26.65;4.30;;;9.20;99.90;;;;;;5071103;28;20037;-69
2023/01/13 06:02:15;;;;;;;27.25;3.80;;;9.20;99.90;;;;;;5060154;28;20020;-69
2023/01/13 06:04:40;;;;;;;25.65;3.95;;;9.30;99.90;;;;;;5065306;28;20063;-69
2023/01/13 06:07:06;;;;;;;24.33;4.68;;;9.30;99.90;;;;;;5067371;28;20028;-71
2023/01/13 06:09:31;;;;;;;22.25;4.00;;;9.40;99.90;;;;;;5067503;28;20043;-71
2023/01/13 06:11:57;;;;;;;26.38;4.38;;;9.40;99.90;;;;;;5053489;28;20096;-70
2023/01/13 06:14:22;;;;;;;29.73;5.28;;;9.40;99.90;;;;;;5061341;28;20048;-71
2023/01/13 06:16:48;;;;;;;29.33;4.50;;;9.40;99.90;;;;;;5063507;28;20110;-70
2023/01/13 06:19:14;;;;;;;30.52;3.78;;;9.40;99.90;;;;;;5068265;28;20037;-70
2023/01/13 06:21:40;;;;;;;21.92;3.35;;;9.50;99.90;;;;;;5063986;28;20381;-69
2023/01/13 06:24:06;;;;;;;25.05;4.65;;;9.50;99.90;;;;;;5070027;28;20411;-69
2023/01/13 06:26:39;;;;;;;26.17;3.92;;;9.50;99.90;;;;;;5062546;28;20508;-69
2023/01/13 06:29:05;;;;;;;32.67;4.85;;;9.60;99.90;;;;;;5061810;28;20017;-71
2023/01/13 06:31:34;;;;;;;25.40;5.05;;;9.50;99.90;;;;;;5069963;28;20221;-70
2023/01/13 06:34:07;;;;;;;25.85;4.70;;;9.60;99.90;;;;;;5057771;28;20025;-70
2023/01/13 06:36:39;;;;;;;28.60;3.75;;;9.60;99.90;;;;;;5066066;28;20040;-71
2023/01/13 06:39:05;;;;;;;22.92;3.70;;;9.60;99.90;;;;;;5066493;28;20060;-69
2023/01/13 06:44:18;;;;;;;32.53;4.57;;;9.60;99.90;;;;;;5067777;28;20075;-68
2023/01/13 06:46:44;;;;;;;21.85;4.28;;;9.60;99.90;;;;;;5063513;28;20032;-68
2023/01/13 06:49:10;;;;;;;19.30;3.80;;;9.60;99.90;;;;;;5060140;28;20033;-71
2023/01/13 06:51:35;;;;;;;23.80;3.83;;;9.60;99.90;;;;;;5063803;28;20025;-69
2023/01/13 06:54:01;;;;;;;21.80;4.22;;;9.60;99.90;;;;;;5073446;28;20103;-71
2023/01/13 06:56:26;;;;;;;22.42;4.60;;;9.50;99.90;;;;;;5066218;28;20100;-69
2023/01/13 06:58:52;;;;;;;33.38;5.00;;;9.50;99.90;;;;;;5073458;28;20025;-70
2023/01/13 07:01:19;;;;;;;29.33;5.28;;;9.40;99.90;;;;;;5060431;28;20049;-70
2023/01/13 07:03:45;;;;;;;20.55;4.13;;;9.40;99.90;;;;;;5056752;28;20025;-70
2023/01/13 07:06:10;;;;;;;30.35;5.13;;;9.40;99.90;;;;;;5068314;28;20401;-68
2023/01/13 07:08:36;;;;;;;24.58;4.38;;;9.30;99.90;;;;;;5043710;28;20078;-68
2023/01/13 07:11:02;;;;;;;33.47;5.30;;;9.30;99.90;;;;;;5072955;28;20480;-68
2023/01/13 07:16:12;;;;;;;26.30;4.63;;;9.20;99.90;;;;;;5071662;28;20538;-70
2023/01/13 07:18:37;;;;;;;25.45;4.85;;;9.20;99.90;;;;;;5073161;28;20037;-69
2023/01/13 07:21:12;;;;;;;24.50;4.22;;;9.20;99.90;;;;;;5071028;28;20059;-70
2023/01/13 07:23:40;;;;;;;25.40;4.90;;;9.20;99.90;;;;;;5052868;28;20029;-70
2023/01/13 07:26:07;;;;;;;38.22;6.10;;;9.20;99.90;;;;;;5053110;28;20021;-70
2023/01/13 07:28:33;;;;;;;28.40;3.70;;;9.20;99.90;;;;;;5052852;28;20040;-69
2023/01/13 07:30:59;;;;;;;24.90;4.43;;;9.20;99.90;;;;;;5033342;28;20025;-69
2023/01/13 07:33:41;;;;;;;28.33;4.55;;;9.20;99.90;;;;;;5051958;28;20527;-68
2023/01/13 07:36:07;;;;;;;42.15;6.50;;;9.10;99.90;;;;;;5067072;28;20070;-70
2023/01/13 07:38:33;;;;;;;41.13;5.13;;;9.20;99.90;;;;;;5055733;28;20055;-67
2023/01/13 07:43:30;;;;;;;31.73;5.57;;;9.20;99.90;;;;;;5052783;28;20112;-68
2023/01/13 07:43:47;;;;;;;32.85;6.15;;;9.10;99.90;;;;;;5052486;28;20037;-68
2023/01/13 07:46:13;;;;;;;26.67;4.38;;;9.20;99.90;;;;;;5052752;28;20033;-68
2023/01/13 07:48:39;;;;;;;41.78;7.18;;;9.20;99.90;;;;;;5052357;28;20033;-68
2023/01/13 07:51:07;;;;;;;25.70;4.90;;;9.20;99.90;;;;;;5058779;28;20028;-68
2023/01/13 07:53:33;;;;;;;25.45;5.53;;;9.20;99.90;;;;;;5070068;28;20460;-68
2023/01/13 07:56:00;;;;;;;28.50;4.70;;;9.20;99.90;;;;;;5054032;28;20033;-69
2023/01/13 07:58:27;;;;;;;24.42;4.47;;;9.30;99.90;;;;;;5071130;28;20031;-69
2023/01/13 08:00:53;;;;;;;32.25;5.85;;;9.20;99.90;;;;;;5052674;28;20461;-70
2023/01/13 08:03:19;;;;;;;22.58;4.20;;;9.30;99.90;;;;;;5052432;28;20029;-68
2023/01/13 08:05:44;;;;;;;28.40;4.45;;;9.30;99.90;;;;;;5052487;28;20395;-69
2023/01/13 08:08:10;;;;;;;29.83;4.50;;;9.30;99.90;;;;;;5052536;28;20033;-68
2023/01/13 08:10:36;;;;;;;22.92;4.57;;;9.30;99.90;;;;;;5052329;28;20025;-69
2023/01/13 08:13:18;;;;;;;30.45;6.15;;;9.30;99.90;;;;;;5060184;28;20047;-70
2023/01/13 08:15:49;;;;;;;24.45;5.22;;;9.40;99.90;;;;;;5069275;28;20471;-68
2023/01/13 08:18:17;;;;;;;33.03;5.45;;;9.40;99.90;;;;;;5071074;28;20032;-69
2023/01/13 08:20:43;;;;;;;21.58;4.10;;;9.40;99.90;;;;;;5053205;28;20045;-69
2023/01/13 08:23:08;;;;;;;21.88;5.20;;;9.40;99.90;;;;;;5071586;28;20033;-68
2023/01/13 08:25:34;;;;;;;26.52;5.18;;;9.40;99.90;;;;;;5072096;28;20036;-69
2023/01/13 08:28:00;;;;;;;21.80;4.00;;;9.50;99.90;;;;;;5074543;28;20043;-69
2023/01/13 08:30:26;;;;;;;31.23;5.03;;;9.50;99.90;;;;;;5076702;28;20028;-69
2023/01/13 08:32:52;;;;;;;30.75;5.38;;;9.50;99.90;;;;;;5076448;28;20108;-68
2023/01/13 08:35:18;;;;;;;25.15;3.97;;;9.60;99.90;;;;;;5069076;28;20110;-69
2023/01/13 08:37:45;;;;;;;30.83;4.68;;;9.60;99.90;;;;;;5096547;28;20074;-69
2023/01/13 08:40:13;;;;;;;26.15;5.05;;;9.60;99.90;;;;;;5092631;28;20066;-69
2023/01/13 08:42:39;;;;;;;28.38;4.60;;;9.60;99.90;;;;;;5075049;28;20472;-69
2023/01/13 08:45:06;;;;;;;19.73;4.10;;;9.60;99.90;;;;;;5075345;28;20025;-69
2023/01/13 08:47:31;;;;;;;26.05;4.25;;;9.60;99.90;;;;;;5075722;28;20052;-69
2023/01/13 08:49:57;;;;;;;27.33;4.43;;;9.60;99.90;;;;;;5071128;28;20064;-69
2023/01/13 08:52:23;;;;;;;27.90;5.13;;;9.70;99.90;;;;;;5065947;28;20063;-69
2023/01/13 08:54:48;;;;;;;22.40;3.35;;;9.70;99.90;;;;;;5074363;28;20036;-69
2023/01/13 08:57:14;;;;;;;26.40;4.57;;;9.60;99.90;;;;;;5057112;28;20023;-69
2023/01/13 08:59:42;;;;;;;28.90;4.47;;;9.70;99.90;;;;;;5056436;28;20064;-69
2023/01/13 09:02:15;;;;;;;24.63;4.07;;;9.70;99.90;;;;;;5055598;28;20489;-69
2023/01/13 09:04:41;;;;;;;28.13;5.35;;;9.80;99.90;;;;;;5062679;28;20179;-69
2023/01/13 09:07:07;;;;;;;24.42;4.65;;;9.80;99.90;;;;;;5070229;28;20162;-69
2023/01/13 09:09:33;;;;;;;26.65;4.22;;;9.80;99.90;;;;;;5064109;28;20024;-69
2023/01/13 09:14:42;;;;;;;29.00;4.45;;;9.90;99.90;;;;;;5074946;28;20031;-69
2023/01/13 09:17:08;;;;;;;26.65;4.95;;;9.90;99.90;;;;;;5056720;28;20124;-68
2023/01/13 09:19:34;;;;;;;29.73;4.35;;;9.90;99.90;;;;;;5055367;28;20025;-69
2023/01/13 09:21:59;;;;;;;23.15;3.92;;;9.90;99.90;;;;;;5054810;28;20375;-69
2023/01/13 09:24:25;;;;;;;21.70;3.65;;;9.90;99.90;;;;;;5054676;28;20075;-68
2023/01/13 09:26:50;;;;;;;28.17;4.07;;;9.90;99.90;;;;;;5055676;28;20021;-68
2023/01/13 09:29:16;;;;;;;29.02;4.25;;;9.90;99.90;;;;;;5037589;28;20021;-68
2023/01/13 09:31:42;;;;;;;24.58;4.43;;;9.90;99.90;;;;;;5055844;28;20106;-68
2023/01/13 09:36:58;;;;;;;19.38;3.67;;;9.90;99.90;;;;;;5054436;28;20076;-69
2023/01/13 09:39:23;;;;;;;30.92;5.45;;;10.00;99.90;;;;;;5054596;28;20028;-69
2023/01/13 09:44:56;;;;;;;22.05;3.55;;;10.00;99.90;;;;;;5050317;28;20028;-69
2023/01/13 09:47:29;;;;;;;;;;;9.90;99.90;;;;;;5054290;28;20504;-69
2023/01/13 09:50:03;;;;;;;25.27;3.90;;;9.90;99.90;;;;;;5045565;28;19909;-69
2023/01/13 09:52:28;;;;;;;21.75;3.45;;;9.90;99.90;;;;;;5034918;28;20450;-69
2023/01/13 09:55:08;;;;;;;15.45;3.08;;;9.90;99.90;;;;;;5035031;28;20026;-69
2023/01/13 09:57:36;;;;;;;29.25;3.45;;;9.90;99.90;;;;;;5034829;28;20033;-69
2023/01/13 10:00:09;;;;;;;22.33;3.75;;;9.90;99.90;;;;;;5034502;28;20052;-69
2023/01/13 10:02:50;;;;;;;21.75;3.60;;;9.90;99.90;;;;;;5034589;28;20075;-71
2023/01/13 10:05:35;;;;;;;27.73;4.15;;;10.00;99.90;;;;;;5034976;28;20033;-71
2023/01/13 10:08:06;;;;;;;21.35;3.10;;;10.00;99.90;;;;;;5034198;28;20096;-69
2023/01/13 10:10:37;;;;;;;20.45;3.70;;;10.10;99.90;;;;;;5034968;28;20417;-68
2023/01/13 10:13:23;;;;;;;22.38;3.42;;;10.10;99.90;;;;;;5034136;28;20351;-68
2023/01/13 10:16:01;;;;;;;22.92;3.67;;;10.20;99.90;;;;;;5040921;28;20463;-68
2023/01/13 10:18:54;;;;;;;16.83;3.08;;;10.30;99.90;;;;;;5054290;28;20457;-68
2023/01/13 10:21:25;;;;;;;19.45;3.15;;;10.50;99.90;;;;;;5054307;28;20040;-69
2023/01/13 10:23:54;;;;;;;21.60;3.90;;;10.80;99.90;;;;;;5053676;28;20025;-68
2023/01/13 10:26:33;;;;;;;22.95;4.57;;;11.10;99.90;;;;;;5053591;28;20026;-69
2023/01/13 10:28:58;;;;;;;20.90;3.85;;;11.10;99.90;;;;;;5053723;28;20112;-69
2023/01/13 10:31:25;;;;;;;19.83;4.22;;;11.10;99.90;;;;;;5053327;28;20152;-69
2023/01/13 10:33:58;;;;;;;21.63;3.67;;;11.10;99.90;;;;;;5053881;28;20037;-69
2023/01/13 10:36:24;;;;;;;16.42;3.58;;;11.10;99.90;;;;;;5053561;28;20033;-69
2023/01/13 10:38:50;;;;;;;28.23;3.78;;;10.90;99.90;;;;;;5054010;28;20032;-69
2023/01/13 10:41:17;;;;;;;17.45;3.10;;;10.90;99.90;;;;;;5053700;28;20112;-69
2023/01/13 10:43:44;;;;;;;17.70;3.63;;;11.00;99.90;;;;;;5053723;28;20028;-68
2023/01/13 10:46:15;;;;;;;20.27;3.05;;;11.00;99.90;;;;;;5053939;28;20033;-69
2023/01/13 10:49:01;;;;;;;15.45;3.30;;;11.00;99.90;;;;;;5053987;28;20025;-69
2023/01/13 10:51:29;;;;;;;18.63;3.03;;;10.90;99.90;;;;;;5053022;28;20064;-69
2023/01/13 10:54:00;;;;;;;25.98;4.28;;;10.90;99.90;;;;;;5053545;28;20052;-69
2023/01/13 10:56:31;;;;;;;24.77;4.05;;;10.90;99.90;;;;;;5053782;28;20488;-70
2023/01/13 10:59:32;;;;;;;18.70;2.92;;;10.90;99.90;;;;;;5053485;28;20384;-70
2023/01/13 11:02:07;;;;;;;20.25;4.00;;;10.80;99.90;;;;;;5011230;28;20054;-69
2023/01/13 11:04:41;;;;;;;20.13;2.47;;;10.90;99.90;;;;;;5047187;28;20048;-69
2023/01/13 11:07:27;;;;;;;22.50;3.42;;;10.90;99.90;;;;;;5053448;28;20029;-69
2023/01/13 11:10:07;;;;;;;20.52;3.63;;;11.00;99.90;;;;;;5053789;28;20033;-69
2023/01/13 11:12:50;;;;;;;14.18;2.97;;;11.00;99.90;;;;;;5053355;28;20029;-69
2023/01/13 11:15:20;;;;;;;25.90;4.00;;;10.90;99.90;;;;;;5052595;28;20384;-69
2023/01/13 11:17:59;;;;;;;16.63;2.50;;;11.00;99.90;;;;;;5053612;28;20102;-69
2023/01/13 11:20:31;;;;;;;14.73;3.08;;;11.00;99.90;;;;;;5053270;28;20392;-69
2023/01/13 11:23:01;;;;;;;18.02;2.70;;;11.00;99.90;;;;;;5053153;28;20025;-70
2023/01/13 11:25:40;;;;;;;14.80;2.75;;;11.00;99.90;;;;;;5053342;28;20079;-68
2023/01/13 11:28:27;;;;;;;22.45;3.20;;;10.90;99.90;;;;;;5052965;28;20029;-69
2023/01/13 11:31:04;;;;;;;22.67;3.88;;;10.80;99.90;;;;;;5052975;28;20025;-70
2023/01/13 11:33:39;;;;;;;20.90;3.30;;;10.90;99.90;;;;;;5052803;28;20362;-69
2023/01/13 11:36:19;;;;;;;15.18;2.58;;;10.80;99.90;;;;;;5053057;28;20112;-69
2023/01/13 11:38:57;;;;;;;23.05;3.20;;;10.80;99.90;;;;;;5053201;28;20029;-69
2023/01/13 11:41:46;;;;;;;16.55;2.90;;;10.80;99.90;;;;;;5052909;28;20041;-69
2023/01/13 11:44:27;;;;;;;18.48;2.65;;;10.80;99.90;;;;;;5052668;28;20103;-69
2023/01/13 11:46:53;;;;;;;16.95;2.72;;;10.80;99.90;;;;;;5052824;28;20037;-69
2023/01/13 11:49:27;;;;;;;19.15;3.17;;;10.80;99.90;;;;;;5053153;28;20060;-69
2023/01/13 11:52:18;;;;;;;19.48;3.08;;;10.80;99.90;;;;;;5053017;28;20388;-69
2023/01/13 11:54:46;;;;;;;14.70;3.10;;;10.80;99.90;;;;;;5052975;28;20037;-69
2023/01/13 11:57:53;;;;;;;18.75;3.13;;;11.00;99.90;;;;;;5053013;28;20052;-69
2023/01/13 12:00:35;;;;;;;22.90;2.95;;;11.10;99.90;;;;;;5052389;28;20073;-70
2023/01/13 12:03:16;;;;;;;21.23;3.13;;;11.20;99.90;;;;;;5052239;28;20033;-69
2023/01/13 12:05:49;;;;;;;18.38;2.63;;;11.30;99.90;;;;;;5051991;28;20113;-69
2023/01/13 12:08:22;;;;;;;19.13;3.13;;;11.40;99.90;;;;;;5034542;28;20032;-69
2023/01/13 12:11:09;;;;;;;15.23;3.30;;;11.50;99.90;;;;;;5052404;28;20135;-70
2023/01/13 12:14:06;;;;;;;17.17;2.70;;;11.50;99.90;;;;;;5052359;28;20457;-69
2023/01/13 12:16:32;;;;;;;14.35;2.92;;;11.40;99.90;;;;;;5051924;28;20056;-69
2023/01/13 12:19:06;;;;;;;17.45;2.85;;;11.30;99.90;;;;;;5052628;28;20040;-70
2023/01/13 12:21:37;;;;;;;14.23;2.15;;;11.20;99.90;;;;;;5052279;28;20040;-69
2023/01/13 12:24:16;;;;;;;13.07;2.60;;;11.10;99.90;;;;;;5052515;28;20033;-69
2023/01/13 12:26:49;;;;;;;14.15;2.35;;;11.00;99.90;;;;;;5061792;28;20036;-69
2023/01/13 12:29:18;;;;;;;17.08;3.25;;;10.90;99.90;;;;;;5072033;28;20028;-69
2023/01/13 12:31:48;;;;;;;16.08;2.80;;;10.90;99.90;;;;;;5056979;28;20131;-69
2023/01/13 12:34:32;;;;;;;16.48;3.25;;;10.80;99.90;;;;;;5052314;28;20029;-69
2023/01/13 12:37:09;;;;;;;20.13;2.95;;;10.80;99.90;;;;;;5052035;28;20035;-69
2023/01/13 12:40:02;;;;;;;18.60;3.25;;;10.80;99.90;;;;;;5052055;28;20607;-68
2023/01/13 12:45:27;;;;;;;23.77;3.50;;;10.70;99.90;;;;;;5052399;28;20095;-69
2023/01/13 12:47:54;;;;;;;18.08;2.88;;;10.70;99.90;;;;;;5052366;28;20025;-69
2023/01/13 12:50:23;;;;;;;15.98;2.75;;;10.70;99.90;;;;;;5051957;28;20040;-69
2023/01/13 12:53:00;;;;;;;25.80;3.67;;;10.70;99.90;;;;;;5052047;28;20043;-69
2023/01/13 12:55:33;;;;;;;18.38;2.88;;;10.70;99.90;;;;;;5051000;28;20058;-69
2023/01/13 12:58:04;;;;;;;16.25;3.28;;;10.70;99.90;;;;;;5051977;28;20069;-69
2023/01/13 13:00:39;;;;;;;22.55;3.30;;;10.60;99.90;;;;;;5051568;28;20040;-69
2023/01/13 13:03:11;;;;;;;16.77;3.00;;;10.70;99.90;;;;;;5051299;28;20033;-68
2023/01/13 13:05:57;;;;;;;22.17;3.65;;;10.70;99.90;;;;;;5058524;28;20430;-69
2023/01/13 13:08:56;;;;;;;19.83;3.05;;;10.70;99.90;;;;;;5072339;28;20086;-68
2023/01/13 13:14:39;;;;;;;14.95;2.58;;;10.80;99.90;;;;;;5074342;28;20028;-69
2023/01/13 13:17:26;;;;;;;12.93;2.47;;;10.90;99.90;;;;;;5075677;28;20052;-69
2023/01/13 13:19:53;;;;;;;16.83;3.15;;;10.90;99.90;;;;;;5075177;28;20101;-69
2023/01/13 13:22:25;;;;;;;20.38;3.20;;;10.90;99.90;;;;;;5075017;28;20040;-69
2023/01/13 13:24:50;;;;;;;16.25;3.17;;;10.80;99.90;;;;;;5075350;28;20021;-67
2023/01/13 13:27:32;;;;;;;17.77;2.72;;;10.80;99.90;;;;;;5075461;28;20464;-68
2023/01/13 13:30:08;;;;;;;15.48;2.30;;;10.80;99.90;;;;;;5075143;28;20030;-68
2023/01/13 13:32:52;;;;;;;18.85;2.45;;;10.80;99.90;;;;;;5075182;28;20514;-68
2023/01/13 13:35:29;;;;;;;23.40;3.30;;;10.80;99.90;;;;;;5074862;28;20444;-68
2023/01/13 13:46:47;;;;;;;20.08;3.35;;;10.90;99.90;;;;;;5075205;28;20047;-68
2023/01/13 13:49:15;;;;;;;19.00;3.90;;;10.90;99.90;;;;;;5074942;28;20093;-68
2023/01/13 13:51:53;;;;;;;16.42;2.28;;;10.90;99.90;;;;;;5074826;28;20036;-69
2023/01/13 13:54:21;;;;;;;11.43;2.53;;;10.90;99.90;;;;;;5074600;28;20468;-68
2023/01/13 13:56:49;;;;;;;26.45;2.92;;;10.90;99.90;;;;;;5074456;28;20052;-67
2023/01/13 13:59:20;;;;;;;17.08;2.90;;;10.80;99.90;;;;;;5067966;28;20494;-68
2023/01/13 14:01:52;;;;;;;22.88;3.40;;;10.80;99.90;;;;;;5074553;28;20048;-68